Time;durP1;ratioP1;P1;durP2;ratioP2;P2;SDS_P1;SDS_P2;PMS_P1;PMS_P2;Temp;Humidity;BMP_temperature;BMP_pressure;BME280_temperature;BME280_humidity;BME280_pressure;Samples;Min_cycle;Max_cycle;Signal;HPM_P1;HPM_P2
2022/03/11 00:00:57;;;;;;;13.03;8.23;;;10.30;90.20;;;;;;5022034;28;20198;-42
2022/03/11 00:03:27;;;;;;;10.27;7.93;;;10.20;90.00;;;;;;5018516;28;20232;-42
2022/03/11 00:05:59;;;;;;;13.73;7.90;;;10.20;90.00;;;;;;5020270;28;20202;-42
2022/03/11 00:08:44;;;;;;;11.53;8.23;;;10.20;90.00;;;;;;5024850;28;20563;-42
2022/03/11 00:11:32;;;;;;;11.37;7.83;;;10.20;90.00;;;;;;5010962;28;20251;-43
2022/03/11 00:14:20;;;;;;;11.97;7.57;;;10.10;90.00;;;;;;5009345;28;20216;-42
2022/03/11 00:16:47;;;;;;;11.37;7.80;;;10.10;90.00;;;;;;5009568;28;20248;-43
2022/03/11 00:19:18;;;;;;;9.90;7.60;;;10.10;89.90;;;;;;5008120;28;20245;-41
2022/03/11 00:21:52;;;;;;;11.43;7.83;;;10.10;89.90;;;;;;5010097;28;20292;-43
2022/03/11 00:24:22;;;;;;;11.90;7.60;;;10.00;89.80;;;;;;5017169;28;20201;-41
2022/03/11 00:26:53;;;;;;;10.37;7.20;;;10.00;89.80;;;;;;5011842;28;20214;-41
2022/03/11 00:29:22;;;;;;;11.13;7.83;;;10.00;89.80;;;;;;5013000;28;20344;-42
2022/03/11 00:31:52;;;;;;;10.97;7.93;;;10.00;89.80;;;;;;5022780;28;20209;-41
2022/03/11 00:34:22;;;;;;;12.80;7.33;;;10.00;89.80;;;;;;5014797;28;20202;-43
2022/03/11 00:36:58;;;;;;;10.10;7.30;;;9.90;90.30;;;;;;5002302;28;20703;-41
2022/03/11 00:39:28;;;;;;;10.67;6.90;;;9.90;90.30;;;;;;5025458;28;20232;-42
2022/03/11 00:42:00;;;;;;;9.53;6.93;;;9.90;90.30;;;;;;5020594;28;20201;-43
2022/03/11 00:44:27;;;;;;;9.77;7.23;;;9.80;90.20;;;;;;5002346;28;20217;-41
2022/03/11 00:46:56;;;;;;;9.47;7.30;;;9.80;90.20;;;;;;5009071;28;20684;-44
2022/03/11 00:49:31;;;;;;;9.67;7.00;;;9.80;90.20;;;;;;5012664;28;20263;-43
2022/03/11 00:52:02;;;;;;;11.57;7.27;;;9.80;90.20;;;;;;5022776;28;20220;-42
2022/03/11 00:54:31;;;;;;;9.97;7.33;;;9.80;90.20;;;;;;5011710;28;20264;-42
2022/03/11 00:57:02;;;;;;;10.63;7.00;;;9.70;90.20;;;;;;5012021;28;20311;-41
2022/03/11 00:59:31;;;;;;;8.60;6.07;;;9.70;90.20;;;;;;4992929;28;20237;-42
2022/03/11 01:02:01;;;;;;;12.00;6.83;;;9.70;90.20;;;;;;5012785;28;20248;-43
2022/03/11 01:04:28;;;;;;;10.57;6.60;;;9.70;90.10;;;;;;5013015;28;20284;-42
2022/03/11 01:06:58;;;;;;;10.57;6.90;;;9.70;90.20;;;;;;5011029;28;20217;-42
2022/03/11 01:09:30;;;;;;;9.80;7.20;;;9.70;90.20;;;;;;5024298;28;20498;-43
2022/03/11 01:11:57;;;;;;;11.20;6.77;;;9.70;90.20;;;;;;5008941;28;20571;-43
2022/03/11 01:14:24;;;;;;;8.63;6.17;;;9.70;90.10;;;;;;5019045;28;20231;-43
2022/03/11 01:16:54;;;;;;;9.60;6.53;;;9.70;90.20;;;;;;5014753;28;20229;-42
2022/03/11 01:19:21;;;;;;;9.43;5.70;;;9.80;90.20;;;;;;5025088;28;20205;-43
2022/03/11 01:21:48;;;;;;;11.93;6.87;;;9.80;90.20;;;;;;5010683;28;20205;-42
2022/03/11 01:24:16;;;;;;;9.43;6.13;;;9.80;90.20;;;;;;5020123;28;20966;-42
2022/03/11 01:26:45;;;;;;;8.60;6.40;;;9.80;90.20;;;;;;5015545;28;20711;-41
2022/03/11 01:29:12;;;;;;;8.97;5.97;;;9.80;90.20;;;;;;5016581;28;20296;-42
2022/03/11 01:31:39;;;;;;;8.77;6.43;;;9.90;90.20;;;;;;5025399;28;20201;-42
2022/03/11 01:34:08;;;;;;;9.00;6.53;;;9.90;90.20;;;;;;5017974;28;20189;-43
2022/03/11 01:36:37;;;;;;;10.37;6.97;;;9.90;90.20;;;;;;5020464;28;20212;-42
2022/03/11 01:39:07;;;;;;;9.70;6.83;;;9.90;90.20;;;;;;5017998;28;20198;-41
2022/03/11 01:41:34;;;;;;;8.63;6.97;;;9.90;90.20;;;;;;5021914;28;20201;-42
2022/03/11 01:44:04;;;;;;;10.83;7.30;;;9.90;90.20;;;;;;4994994;28;20320;-41
2022/03/11 01:46:31;;;;;;;10.80;7.47;;;9.90;90.20;;;;;;4996016;28;20204;-40
2022/03/11 01:49:02;;;;;;;9.07;6.87;;;9.90;90.20;;;;;;5014097;28;20283;-43
2022/03/11 01:51:34;;;;;;;11.93;7.03;;;9.90;90.20;;;;;;5016070;28;20201;-43
2022/03/11 01:54:08;;;;;;;8.60;6.73;;;9.90;90.10;;;;;;5026363;28;20236;-42
2022/03/11 01:56:37;;;;;;;9.97;7.10;;;9.80;90.40;;;;;;4994635;28;20201;-42
2022/03/11 01:59:11;;;;;;;10.37;7.93;;;9.80;90.10;;;;;;5020081;28;20205;-43
2022/03/11 02:01:39;;;;;;;8.57;6.80;;;9.80;90.10;;;;;;5021391;28;20243;-42
2022/03/11 02:04:10;;;;;;;10.37;7.43;;;9.80;90.10;;;;;;5019932;28;20217;-43
2022/03/11 02:06:38;;;;;;;10.63;7.93;;;9.70;90.00;;;;;;5016029;28;20688;-42
2022/03/11 02:09:06;;;;;;;10.23;7.43;;;9.70;90.00;;;;;;5025617;28;20201;-42
2022/03/11 02:11:39;;;;;;;10.17;7.10;;;9.70;90.00;;;;;;5010234;28;20241;-41
2022/03/11 02:14:06;;;;;;;10.50;7.77;;;9.70;90.00;;;;;;5019479;28;20656;-43
2022/03/11 02:16:37;;;;;;;10.73;7.13;;;9.60;89.90;;;;;;5018297;28;20216;-41
2022/03/11 02:19:08;;;;;;;15.47;7.93;;;9.60;89.90;;;;;;5020973;28;20225;-42
2022/03/11 02:21:44;;;;;;;10.97;7.70;;;9.60;89.80;;;;;;5019595;28;20292;-42
2022/03/11 02:24:11;;;;;;;10.73;7.27;;;9.60;89.70;;;;;;5019120;28;20216;-42
2022/03/11 02:26:43;;;;;;;12.23;7.33;;;9.60;89.80;;;;;;5014937;28;20590;-42
2022/03/11 02:29:11;;;;;;;10.93;6.83;;;9.50;89.70;;;;;;5019318;28;20304;-41
2022/03/11 02:31:45;;;;;;;9.97;7.23;;;9.50;89.70;;;;;;5022842;28;20571;-42
2022/03/11 02:34:18;;;;;;;10.20;7.50;;;9.50;89.70;;;;;;5029748;28;20579;-42
2022/03/11 02:36:48;;;;;;;10.20;7.30;;;9.50;89.80;;;;;;5016151;28;20304;-42
2022/03/11 02:39:19;;;;;;;10.63;7.10;;;9.50;89.70;;;;;;5021788;28;20695;-42
2022/03/11 02:41:49;;;;;;;12.17;7.63;;;9.40;89.60;;;;;;5023013;28;20301;-42
2022/03/11 02:44:16;;;;;;;10.87;7.87;;;9.40;89.60;;;;;;5028846;28;20209;-43
2022/03/11 02:46:47;;;;;;;11.93;7.13;;;9.40;89.60;;;;;;5011132;28;20588;-43
2022/03/11 02:49:19;;;;;;;9.73;7.03;;;9.40;89.60;;;;;;5004747;28;20755;-42
2022/03/11 02:51:48;;;;;;;8.97;6.73;;;9.40;89.50;;;;;;5019278;28;20706;-43
2022/03/11 02:54:15;;;;;;;10.30;7.13;;;9.40;89.60;;;;;;5014818;28;20233;-44
2022/03/11 02:56:42;;;;;;;9.53;6.97;;;9.40;89.50;;;;;;5018274;28;20304;-42
2022/03/11 02:59:14;;;;;;;13.50;7.70;;;9.30;89.40;;;;;;5017069;28;20224;-43
2022/03/11 03:01:42;;;;;;;8.67;6.60;;;9.30;89.40;;;;;;5014113;28;20770;-43
2022/03/11 03:04:12;;;;;;;10.07;7.37;;;9.30;89.40;;;;;;5026521;28;20205;-44
2022/03/11 03:06:41;;;;;;;9.53;7.10;;;9.30;89.40;;;;;;5003168;28;20783;-43
2022/03/11 03:09:11;;;;;;;9.80;6.83;;;9.30;89.40;;;;;;5012535;28;20688;-42
2022/03/11 03:11:38;;;;;;;9.97;7.30;;;9.30;89.50;;;;;;5013703;28;20200;-41
2022/03/11 03:14:07;;;;;;;10.40;7.23;;;9.30;89.40;;;;;;5022583;28;20317;-43
2022/03/11 03:16:45;;;;;;;9.23;7.00;;;9.30;89.30;;;;;;5020918;28;20633;-43
2022/03/11 03:19:12;;;;;;;10.27;6.90;;;9.30;89.30;;;;;;5026969;28;20797;-42
2022/03/11 03:21:42;;;;;;;10.63;7.27;;;9.30;89.20;;;;;;5009175;28;20221;-41
2022/03/11 03:24:14;;;;;;;10.87;7.50;;;9.20;89.90;;;;;;5014162;28;20200;-42
2022/03/11 03:26:44;;;;;;;8.70;6.83;;;9.20;89.30;;;;;;5016068;28;20197;-41
2022/03/11 03:29:11;;;;;;;11.57;7.20;;;9.20;89.10;;;;;;5019210;28;20209;-43
2022/03/11 03:31:39;;;;;;;10.53;6.83;;;9.20;89.20;;;;;;5026263;28;20727;-42
2022/03/11 03:34:09;;;;;;;10.07;6.73;;;9.20;89.20;;;;;;5017812;28;20202;-43
2022/03/11 03:36:38;;;;;;;11.27;7.13;;;9.20;89.10;;;;;;5014774;28;20303;-43
2022/03/11 03:39:08;;;;;;;9.33;7.10;;;9.20;89.20;;;;;;5021875;28;20232;-43
2022/03/11 03:41:38;;;;;;;10.93;6.90;;;9.10;89.10;;;;;;5023929;28;20651;-42
2022/03/11 03:44:07;;;;;;;11.13;7.33;;;9.10;89.10;;;;;;5016435;28;20203;-42
2022/03/11 03:46:34;;;;;;;8.83;7.17;;;9.10;89.00;;;;;;5013706;28;20205;-44
2022/03/11 03:49:06;;;;;;;9.17;6.70;;;9.10;89.00;;;;;;5015339;28;20618;-45
2022/03/11 03:51:34;;;;;;;10.30;7.50;;;9.10;89.00;;;;;;5023200;28;20219;-44
2022/03/11 03:54:01;;;;;;;8.93;6.70;;;9.10;89.00;;;;;;5013701;28;20268;-43
2022/03/11 03:56:28;;;;;;;10.30;6.93;;;9.10;89.00;;;;;;5021720;28;20217;-31
2022/03/11 03:58:56;;;;;;;10.03;7.10;;;9.10;89.00;;;;;;5010392;28;20236;-31
2022/03/11 04:01:28;;;;;;;10.10;7.40;;;9.10;89.00;;;;;;5013751;28;20225;-31
2022/03/11 04:03:56;;;;;;;10.83;7.33;;;9.10;89.00;;;;;;5016215;28;20197;-30
2022/03/11 04:06:26;;;;;;;10.00;6.40;;;9.10;89.00;;;;;;5013945;28;20721;-31
2022/03/11 04:08:56;;;;;;;10.50;7.17;;;9.10;88.90;;;;;;5010429;28;20205;-31
2022/03/11 04:11:28;;;;;;;10.80;7.53;;;9.10;88.90;;;;;;5015923;28;20739;-31
2022/03/11 04:13:58;;;;;;;11.90;7.20;;;9.00;88.80;;;;;;5013543;28;20209;-29
2022/03/11 04:16:25;;;;;;;8.47;6.07;;;9.00;88.80;;;;;;5005506;28;20197;-29
2022/03/11 04:18:53;;;;;;;11.27;7.17;;;9.00;88.90;;;;;;5008188;28;20416;-29
2022/03/11 04:21:21;;;;;;;10.90;6.90;;;9.00;88.80;;;;;;5013783;28;20233;-29
2022/03/11 04:23:50;;;;;;;11.63;7.43;;;9.00;88.80;;;;;;5010606;28;20233;-29
2022/03/11 04:26:17;;;;;;;9.10;6.57;;;9.00;88.80;;;;;;5012543;28;20201;-30
2022/03/11 04:28:47;;;;;;;9.77;6.77;;;9.00;88.80;;;;;;4980353;28;20212;-30
2022/03/11 04:31:14;;;;;;;9.83;7.17;;;9.00;88.80;;;;;;5013916;28;20287;-30
2022/03/11 04:33:44;;;;;;;10.20;7.03;;;9.00;88.80;;;;;;5011166;28;20213;-30
2022/03/11 04:36:16;;;;;;;9.77;6.90;;;8.90;88.70;;;;;;5012465;28;20216;-30
2022/03/11 04:38:43;;;;;;;11.03;7.23;;;8.90;88.80;;;;;;5006864;28;20300;-30
2022/03/11 04:41:13;;;;;;;10.77;7.00;;;8.90;88.70;;;;;;5016563;28;20689;-30
2022/03/11 04:43:42;;;;;;;12.27;7.37;;;8.90;88.70;;;;;;5010143;28;20236;-30
2022/03/11 04:46:09;;;;;;;11.43;7.03;;;8.90;88.70;;;;;;5012468;28;20201;-30
2022/03/11 04:48:39;;;;;;;9.57;7.13;;;8.90;88.80;;;;;;5012814;28;20213;-29
2022/03/11 04:51:09;;;;;;;11.60;7.80;;;8.80;88.70;;;;;;5022447;28;20778;-30
2022/03/11 04:53:36;;;;;;;9.73;7.13;;;8.80;88.70;;;;;;5012745;28;20288;-30
2022/03/11 04:56:03;;;;;;;9.53;6.93;;;8.80;88.70;;;;;;5013245;28;20298;-30
2022/03/11 04:58:31;;;;;;;10.37;7.83;;;8.80;88.90;;;;;;5010332;28;20753;-31
2022/03/11 05:00:59;;;;;;;9.50;6.77;;;8.80;88.70;;;;;;5011916;28;20663;-30
2022/03/11 05:03:27;;;;;;;10.07;7.50;;;8.80;88.70;;;;;;4989958;28;20736;-30
2022/03/11 05:05:54;;;;;;;9.73;7.70;;;8.80;88.70;;;;;;5013731;28;20278;-30
2022/03/11 05:08:22;;;;;;;10.87;6.97;;;8.70;88.60;;;;;;5012307;28;20217;-30
2022/03/11 05:10:49;;;;;;;11.83;8.07;;;8.70;88.70;;;;;;4988271;28;20205;-30
2022/03/11 05:13:17;;;;;;;9.23;6.90;;;8.70;88.60;;;;;;5007940;28;20292;-30
2022/03/11 05:15:44;;;;;;;10.57;7.67;;;8.70;88.70;;;;;;5005449;28;20738;-30
2022/03/11 05:18:17;;;;;;;11.40;7.17;;;8.70;88.70;;;;;;5008046;28;20221;-30
2022/03/11 05:20:46;;;;;;;12.77;7.23;;;8.70;88.70;;;;;;5026369;28;20680;-30
2022/03/11 05:23:13;;;;;;;11.20;7.80;;;8.70;88.60;;;;;;5025596;28;20205;-30
2022/03/11 05:25:41;;;;;;;10.90;7.07;;;8.70;88.70;;;;;;5013994;28;20687;-30
2022/03/11 05:28:11;;;;;;;12.00;8.00;;;8.70;88.80;;;;;;5018989;28;20205;-31
2022/03/11 05:30:38;;;;;;;9.30;6.90;;;8.70;88.70;;;;;;5017303;28;20207;-30
2022/03/11 05:33:10;;;;;;;11.33;7.57;;;8.70;88.70;;;;;;5015856;28;20224;-30
2022/03/11 05:35:41;;;;;;;10.73;7.17;;;8.70;88.70;;;;;;5022342;28;20201;-30
2022/03/11 05:38:08;;;;;;;11.63;7.50;;;8.70;88.70;;;;;;5017922;28;20263;-30
2022/03/11 05:40:36;;;;;;;12.87;8.13;;;8.70;88.80;;;;;;5016981;28;20213;-30
2022/03/11 05:43:03;;;;;;;9.83;7.20;;;8.70;88.80;;;;;;5017410;28;20286;-30
2022/03/11 05:45:31;;;;;;;12.30;7.90;;;8.70;88.80;;;;;;5025628;28;20216;-30
2022/03/11 05:48:00;;;;;;;11.80;7.73;;;8.70;88.80;;;;;;5015305;28;20197;-30
2022/03/11 05:50:32;;;;;;;12.10;7.47;;;8.70;88.80;;;;;;5003588;28;20714;-30
2022/03/11 05:52:59;;;;;;;12.60;7.40;;;8.70;88.80;;;;;;5018097;28;20561;-30
2022/03/11 05:55:29;;;;;;;11.93;8.07;;;8.70;88.80;;;;;;5013468;28;20296;-30
2022/03/11 05:57:56;;;;;;;11.23;7.13;;;8.70;88.80;;;;;;5019545;28;20296;-30
2022/03/11 06:00:26;;;;;;;13.83;7.33;;;8.70;88.80;;;;;;5011970;28;20368;-30
2022/03/11 06:02:55;;;;;;;12.90;7.30;;;8.70;88.80;;;;;;5011184;28;20197;-30
2022/03/11 06:05:25;;;;;;;10.33;7.50;;;8.70;88.90;;;;;;5017304;28;20667;-29
2022/03/11 06:07:52;;;;;;;10.00;6.90;;;8.70;88.90;;;;;;5017833;28;20197;-29
2022/03/11 06:10:22;;;;;;;14.93;7.60;;;8.70;89.00;;;;;;5020847;28;20275;-29
2022/03/11 06:12:51;;;;;;;11.27;7.30;;;8.70;88.90;;;;;;5007627;28;20227;-29
2022/03/11 06:15:18;;;;;;;12.50;7.40;;;8.70;88.90;;;;;;5026997;28;20228;-29
2022/03/11 06:17:46;;;;;;;12.07;7.67;;;8.70;88.90;;;;;;5014355;28;20298;-29
2022/03/11 06:20:18;;;;;;;13.93;7.60;;;8.70;88.90;;;;;;5014142;28;20664;-29
2022/03/11 06:22:49;;;;;;;11.23;7.53;;;8.70;89.00;;;;;;5013658;28;20663;-29
2022/03/11 06:25:20;;;;;;;8.43;6.67;;;8.70;89.00;;;;;;5013903;28;20634;-29
2022/03/11 06:27:47;;;;;;;11.77;7.67;;;8.70;89.00;;;;;;5023913;28;20691;-29
2022/03/11 06:30:19;;;;;;;12.67;7.03;;;8.70;89.00;;;;;;5021924;28;20292;-29
2022/03/11 06:32:48;;;;;;;13.60;7.50;;;8.80;89.20;;;;;;5017278;28;20202;-28
2022/03/11 06:35:16;;;;;;;11.37;7.60;;;8.80;89.20;;;;;;5025949;28;20197;-29
2022/03/11 06:37:45;;;;;;;13.27;7.53;;;8.80;89.20;;;;;;5015246;28;21904;-29
2022/03/11 06:40:15;;;;;;;9.87;6.90;;;8.80;89.20;;;;;;5013812;28;20303;-29
2022/03/11 06:42:45;;;;;;;13.27;8.03;;;8.80;89.20;;;;;;5017104;28;20304;-29
2022/03/11 06:45:17;;;;;;;10.27;7.27;;;8.80;89.20;;;;;;5022338;28;20201;-29
2022/03/11 06:47:47;;;;;;;12.93;7.93;;;8.90;89.30;;;;;;5020155;28;20734;-29
2022/03/11 06:50:18;;;;;;;15.00;7.80;;;8.90;89.40;;;;;;5020886;28;20621;-29
2022/03/11 06:52:45;;;;;;;12.83;7.87;;;8.80;89.30;;;;;;5025994;28;20348;-30
2022/03/11 06:55:16;;;;;;;11.83;7.83;;;8.90;89.50;;;;;;5028391;28;20241;-29
2022/03/11 06:57:45;;;;;;;11.63;7.20;;;8.90;89.50;;;;;;5015659;28;20291;-29
2022/03/11 07:00:14;;;;;;;11.77;7.83;;;8.90;89.50;;;;;;5024394;28;20225;-29
2022/03/11 07:02:42;;;;;;;11.90;7.63;;;8.90;89.50;;;;;;5027594;28;20252;-29
2022/03/11 07:05:10;;;;;;;12.23;7.53;;;8.90;89.50;;;;;;5003751;28;20244;-29
2022/03/11 07:07:38;;;;;;;11.30;8.03;;;8.90;89.60;;;;;;5023356;28;20216;-29
2022/03/11 07:10:07;;;;;;;13.27;8.40;;;9.00;89.70;;;;;;5012529;28;20695;-28
2022/03/11 07:12:37;;;;;;;14.47;8.40;;;9.00;89.70;;;;;;5014854;28;20290;-29
2022/03/11 07:15:10;;;;;;;12.63;8.50;;;9.00;89.70;;;;;;5011898;28;20232;-29
2022/03/11 07:17:38;;;;;;;13.07;7.80;;;9.00;89.70;;;;;;5024194;28;20225;-29
2022/03/11 07:20:10;;;;;;;18.77;8.13;;;9.10;89.80;;;;;;5001097;28;20275;-29
2022/03/11 07:22:47;;;;;;;11.23;7.63;;;9.10;89.90;;;;;;5014957;28;20212;-29
2022/03/11 07:25:18;;;;;;;14.23;7.77;;;9.10;89.90;;;;;;5018592;28;20677;-29
2022/03/11 07:27:52;;;;;;;12.67;7.23;;;9.10;89.90;;;;;;5020400;28;20263;-30
2022/03/11 07:30:21;;;;;;;14.90;7.37;;;9.20;90.00;;;;;;5002414;28;20204;-30
2022/03/11 07:32:52;;;;;;;10.83;7.77;;;9.20;90.00;;;;;;5014038;28;20667;-29
2022/03/11 07:35:24;;;;;;;12.00;7.57;;;9.30;90.10;;;;;;5013999;28;20311;-30
2022/03/11 07:37:51;;;;;;;12.47;8.07;;;9.30;90.10;;;;;;5012958;28;20209;-30
2022/03/11 07:40:21;;;;;;;12.40;7.50;;;9.40;90.20;;;;;;5001024;28;20650;-29
2022/03/11 07:42:51;;;;;;;11.97;7.37;;;9.40;90.20;;;;;;5023621;28;20201;-29
2022/03/11 07:45:22;;;;;;;11.27;7.77;;;9.40;90.20;;;;;;5017914;28;20205;-30
2022/03/11 07:47:50;;;;;;;11.27;7.43;;;9.50;90.20;;;;;;5019701;28;20208;-29
2022/03/11 07:50:17;;;;;;;13.93;8.10;;;9.50;90.30;;;;;;5024727;28;20229;-29
2022/03/11 07:52:47;;;;;;;15.83;8.07;;;9.60;90.30;;;;;;5007804;28;20248;-30
2022/03/11 07:55:15;;;;;;;12.33;7.50;;;9.60;90.30;;;;;;5013453;28;20204;-29
2022/03/11 07:57:42;;;;;;;17.47;9.33;;;9.70;90.40;;;;;;5009335;28;20212;-30
2022/03/11 08:00:13;;;;;;;12.37;7.70;;;9.70;90.40;;;;;;5014997;28;20225;-30
2022/03/11 08:02:41;;;;;;;12.37;7.40;;;9.70;90.50;;;;;;5007160;28;20194;-30
2022/03/11 08:05:14;;;;;;;11.87;7.50;;;9.80;90.60;;;;;;5010687;28;20293;-30
2022/03/11 08:07:49;;;;;;;13.63;6.93;;;9.80;90.60;;;;;;5010716;28;20215;-30
2022/03/11 08:10:17;;;;;;;13.53;7.87;;;9.90;90.70;;;;;;5020764;28;20252;-30
2022/03/11 08:12:48;;;;;;;10.17;7.23;;;9.90;90.70;;;;;;5019692;28;20789;-29
2022/03/11 08:15:18;;;;;;;10.43;7.37;;;10.00;90.20;;;;;;4996712;28;20207;-29
2022/03/11 08:17:46;;;;;;;11.60;7.97;;;10.00;90.30;;;;;;5014963;28;20213;-29
2022/03/11 08:20:15;;;;;;;10.73;7.27;;;10.10;90.30;;;;;;4998069;28;20591;-29
2022/03/11 08:22:50;;;;;;;12.97;7.40;;;10.10;90.40;;;;;;5019581;28;20561;-29
2022/03/11 08:25:21;;;;;;;10.40;7.13;;;10.20;90.40;;;;;;5017919;28;20565;-29
2022/03/11 08:27:48;;;;;;;13.67;7.70;;;10.20;90.50;;;;;;5007083;28;20197;-29
2022/03/11 08:30:17;;;;;;;14.30;7.33;;;10.30;90.50;;;;;;5015900;28;20304;-29
2022/03/11 08:32:44;;;;;;;12.23;8.23;;;10.40;90.60;;;;;;5021576;28;20544;-29
2022/03/11 08:35:18;;;;;;;15.53;8.40;;;10.40;90.60;;;;;;5009302;28;20283;-30
2022/03/11 08:37:46;;;;;;;17.10;8.10;;;10.50;90.70;;;;;;5007739;28;20205;-29
2022/03/11 08:40:14;;;;;;;13.10;7.27;;;10.60;90.80;;;;;;5015188;28;20252;-29
2022/03/11 08:42:44;;;;;;;19.67;8.77;;;10.70;90.90;;;;;;5007709;28;20204;-29
2022/03/11 08:45:14;;;;;;;13.47;7.70;;;10.70;90.90;;;;;;5006423;28;20225;-29
2022/03/11 08:47:49;;;;;;;15.33;8.00;;;10.80;91.00;;;;;;5021117;28;20282;-29
2022/03/11 08:50:20;;;;;;;13.07;6.73;;;10.80;91.00;;;;;;5006113;28;20683;-29
2022/03/11 08:52:53;;;;;;;12.10;7.40;;;10.90;91.10;;;;;;5026021;28;20766;-29
2022/03/11 08:55:22;;;;;;;13.77;7.23;;;10.90;91.10;;;;;;5026857;28;20298;-29
2022/03/11 08:57:52;;;;;;;11.43;6.70;;;11.00;91.20;;;;;;5001251;28;20678;-29
2022/03/11 09:00:22;;;;;;;12.33;7.10;;;11.10;91.30;;;;;;5027776;28;20717;-30
2022/03/11 09:02:54;;;;;;;22.47;8.33;;;11.10;91.30;;;;;;5016462;28;20193;-30
2022/03/11 09:05:27;;;;;;;10.60;6.80;;;11.20;91.30;;;;;;4997961;28;20205;-30
2022/03/11 09:07:58;;;;;;;10.53;6.73;;;11.30;91.40;;;;;;5012790;28;20288;-30
2022/03/11 09:10:25;;;;;;;10.10;7.27;;;11.30;91.50;;;;;;5008894;28;20324;-30
2022/03/11 09:12:52;;;;;;;10.90;7.03;;;11.40;91.50;;;;;;5003798;28;20204;-30
2022/03/11 09:15:20;;;;;;;14.53;7.70;;;11.40;91.60;;;;;;5023426;28;20212;-30
2022/03/11 09:17:49;;;;;;;14.27;8.17;;;11.50;91.70;;;;;;5013043;28;20594;-30
2022/03/11 09:20:19;;;;;;;12.03;7.73;;;11.60;91.70;;;;;;4993208;28;20288;-30
2022/03/11 09:22:59;;;;;;;15.93;7.93;;;11.60;91.80;;;;;;5012680;28;20194;-29
2022/03/11 09:25:34;;;;;;;15.60;7.60;;;11.70;91.80;;;;;;5026281;28;20197;-30
2022/03/11 09:28:07;;;;;;;16.47;7.53;;;11.80;92.00;;;;;;5024345;28;20400;-30
2022/03/11 09:30:34;;;;;;;9.03;6.30;;;11.90;92.00;;;;;;5008968;28;20357;-30
2022/03/11 09:33:02;;;;;;;13.50;7.10;;;11.90;92.10;;;;;;5017847;28;20205;-29
2022/03/11 09:35:29;;;;;;;10.13;6.83;;;12.00;92.10;;;;;;5009660;28;20612;-30
2022/03/11 09:38:00;;;;;;;10.70;7.10;;;12.00;92.10;;;;;;5025345;28;20270;-43
2022/03/11 09:40:31;;;;;;;13.10;6.77;;;12.10;92.20;;;;;;4996655;28;20228;-42
2022/03/11 09:43:00;;;;;;;10.50;6.77;;;12.20;92.30;;;;;;5021884;28;20744;-43
2022/03/11 09:45:27;;;;;;;13.90;7.00;;;12.30;92.40;;;;;;5022983;28;20217;-43
2022/03/11 09:47:55;;;;;;;13.33;6.90;;;12.30;92.40;;;;;;5009847;28;20201;-43
2022/03/11 09:50:28;;;;;;;9.70;6.70;;;12.40;92.50;;;;;;5006983;28;20220;-42
2022/03/11 09:52:59;;;;;;;12.87;6.77;;;12.40;92.50;;;;;;5004908;28;20245;-43
2022/03/11 09:55:28;;;;;;;12.63;6.77;;;12.50;92.60;;;;;;5015202;28;20216;-43
2022/03/11 09:57:55;;;;;;;9.97;6.40;;;12.60;92.70;;;;;;5026632;28;20296;-43
2022/03/11 10:00:25;;;;;;;11.47;6.67;;;12.60;92.70;;;;;;5013532;28;20225;-42
2022/03/11 10:02:58;;;;;;;11.40;6.40;;;12.70;92.80;;;;;;5024803;28;20215;-42
2022/03/11 10:05:45;;;;;;;10.40;6.90;;;12.70;92.80;;;;;;5025535;28;20219;-43
2022/03/11 10:08:13;;;;;;;9.80;6.60;;;12.90;93.00;;;;;;5023956;28;20582;-43
2022/03/11 10:10:40;;;;;;;10.47;6.77;;;12.90;93.10;;;;;;5025705;28;20205;-43
2022/03/11 10:13:16;;;;;;;8.30;6.40;;;13.00;93.10;;;;;;5007006;28;20254;-43
2022/03/11 10:15:43;;;;;;;8.50;6.67;;;13.00;93.20;;;;;;5020743;28;20718;-43
2022/03/11 10:18:15;;;;;;;8.13;6.17;;;13.10;93.40;;;;;;5025078;28;20228;-42
2022/03/11 10:20:44;;;;;;;9.23;6.03;;;13.20;93.80;;;;;;5022841;28;20316;-42
2022/03/11 10:23:14;;;;;;;9.13;6.50;;;13.30;93.60;;;;;;5018649;28;20214;-43
2022/03/11 10:25:50;;;;;;;10.70;5.63;;;13.40;93.70;;;;;;5007305;28;20206;-43
2022/03/11 10:28:26;;;;;;;8.53;5.70;;;13.40;93.70;;;;;;5010017;28;20212;-43
2022/03/11 10:30:53;;;;;;;7.10;5.43;;;13.50;93.80;;;;;;5024644;28;20987;-43
2022/03/11 10:33:21;;;;;;;7.00;5.60;;;13.60;93.90;;;;;;4986564;28;20213;-44
2022/03/11 10:35:48;;;;;;;10.20;5.60;;;13.70;94.00;;;;;;5021843;28;20295;-43
2022/03/11 10:38:21;;;;;;;7.73;5.67;;;13.80;94.10;;;;;;5009947;28;20209;-44
2022/03/11 10:40:55;;;;;;;9.53;5.83;;;13.90;94.20;;;;;;5029519;28;20233;-42
2022/03/11 10:43:27;;;;;;;8.93;5.28;;;14.00;94.20;;;;;;5022126;28;20232;-42
2022/03/11 10:46:09;;;;;;;9.37;5.60;;;14.00;94.30;;;;;;5022150;28;20204;-42
2022/03/11 10:48:43;;;;;;;8.37;5.43;;;14.10;94.40;;;;;;5012288;28;20266;-42
2022/03/11 10:51:25;;;;;;;6.18;5.28;;;14.20;94.40;;;;;;5027697;28;20248;-42
2022/03/11 10:53:53;;;;;;;5.20;4.55;;;14.30;94.50;;;;;;5019103;28;20288;-43
2022/03/11 10:56:39;;;;;;;7.25;5.53;;;14.30;94.50;;;;;;5017258;28;20219;-43
2022/03/11 10:59:13;;;;;;;11.32;6.07;;;14.40;94.60;;;;;;5007510;28;20217;-42
2022/03/11 11:01:43;;;;;;;6.25;5.50;;;14.50;94.70;;;;;;5013277;28;20228;-42
2022/03/11 11:04:13;;;;;;;7.80;5.10;;;14.50;94.60;;;;;;5008662;28;20201;-42
2022/03/11 11:06:42;;;;;;;7.40;5.13;;;14.60;94.80;;;;;;5023416;28;20278;-42
2022/03/11 11:09:11;;;;;;;6.13;4.85;;;14.60;94.80;;;;;;5023832;28;20200;-42
2022/03/11 11:11:42;;;;;;;7.88;6.07;;;14.70;94.80;;;;;;5012490;28;20208;-41
2022/03/11 11:14:11;;;;;;;8.13;5.43;;;14.80;94.90;;;;;;5017787;28;20198;-42
2022/03/11 11:16:42;;;;;;;6.22;5.20;;;14.80;95.00;;;;;;5023434;28;20240;-42
2022/03/11 11:19:15;;;;;;;16.15;5.78;;;14.90;95.00;;;;;;5011377;28;20292;-42
2022/03/11 11:21:48;;;;;;;9.23;5.20;;;14.90;95.10;;;;;;5010582;28;20299;-42
2022/03/11 11:24:24;;;;;;;7.03;5.07;;;15.00;95.10;;;;;;5012032;28;20212;-43
2022/03/11 11:26:56;;;;;;;7.93;5.05;;;15.10;95.20;;;;;;5011139;28;20259;-42
2022/03/11 11:29:29;;;;;;;6.97;4.72;;;15.10;95.20;;;;;;5009723;28;20237;-42
2022/03/11 11:32:09;;;;;;;6.05;5.05;;;15.20;95.30;;;;;;5019864;28;20193;-42
2022/03/11 11:34:37;;;;;;;7.40;4.65;;;15.30;95.40;;;;;;5002813;28;20209;-42
2022/03/11 11:37:06;;;;;;;8.45;4.45;;;15.30;95.40;;;;;;5015028;28;20197;-41
2022/03/11 11:39:41;;;;;;;6.40;4.70;;;15.40;95.50;;;;;;5021825;28;20727;-42
2022/03/11 11:42:09;;;;;;;6.68;4.72;;;15.40;95.50;;;;;;5022374;28;20702;-43
2022/03/11 11:44:43;;;;;;;6.22;4.80;;;15.50;95.50;;;;;;5011985;28;20375;-43
2022/03/11 11:47:20;;;;;;;9.52;4.20;;;15.60;95.50;;;;;;5015975;28;20197;-42
2022/03/11 11:49:51;;;;;;;6.18;4.90;;;15.60;95.60;;;;;;5002941;28;20210;-43
2022/03/11 11:52:36;;;;;;;5.97;4.40;;;15.70;95.60;;;;;;5013282;28;20252;-42
2022/03/11 11:55:23;;;;;;;5.25;4.50;;;15.70;95.60;;;;;;5014119;28;20208;-43
2022/03/11 11:57:52;;;;;;;8.52;5.47;;;15.80;95.70;;;;;;5018649;28;20292;-43
2022/03/11 12:00:37;;;;;;;6.18;4.72;;;15.80;95.70;;;;;;5001874;28;20298;-43
2022/03/11 12:03:10;;;;;;;10.02;4.45;;;15.90;95.80;;;;;;5016219;28;20288;-43
2022/03/11 12:05:47;;;;;;;7.68;4.60;;;15.90;95.80;;;;;;5022826;28;20201;-44
2022/03/11 12:08:45;;;;;;;13.45;5.05;;;16.00;95.90;;;;;;5022550;28;20246;-43
2022/03/11 12:11:40;;;;;;;9.50;5.18;;;16.10;95.90;;;;;;5015954;28;20194;-44
2022/03/11 12:14:10;;;;;;;8.20;4.88;;;16.10;95.90;;;;;;4990479;28;20201;-44
2022/03/11 12:17:06;;;;;;;5.93;4.20;;;16.10;95.90;;;;;;5013605;28;20302;-44
2022/03/11 12:19:44;;;;;;;11.10;4.70;;;16.20;96.00;;;;;;5018736;28;20197;-43
2022/03/11 12:22:30;;;;;;;12.60;5.20;;;16.30;96.00;;;;;;5006338;28;20225;-44
2022/03/11 12:25:02;;;;;;;9.43;4.70;;;16.30;96.00;;;;;;5023705;28;20196;-43
2022/03/11 12:28:00;;;;;;;8.18;4.55;;;16.30;96.00;;;;;;5024031;28;20219;-44
2022/03/11 12:30:51;;;;;;;10.73;4.78;;;16.50;96.20;;;;;;4999314;28;20304;-30
2022/03/11 12:33:22;;;;;;;9.85;4.38;;;16.50;96.20;;;;;;5016332;28;20209;-30
2022/03/11 12:35:52;;;;;;;16.23;6.57;;;16.50;96.20;;;;;;5018379;28;20217;-30
2022/03/11 12:38:22;;;;;;;5.93;4.32;;;16.50;96.20;;;;;;5017949;28;20240;-30
2022/03/11 12:40:50;;;;;;;8.68;4.72;;;16.60;96.30;;;;;;5024164;28;20213;-30
2022/03/11 12:43:21;;;;;;;10.43;5.20;;;16.70;96.30;;;;;;5018299;28;20222;-31
2022/03/11 12:45:51;;;;;;;6.55;3.90;;;16.70;96.30;;;;;;5001781;28;20255;-30
2022/03/11 12:48:20;;;;;;;10.35;4.95;;;16.80;96.40;;;;;;5014082;28;20295;-30
2022/03/11 12:50:50;;;;;;;6.50;3.85;;;16.80;96.30;;;;;;5016863;28;20217;-30
2022/03/11 12:53:21;;;;;;;9.85;4.22;;;16.90;96.40;;;;;;5015845;28;20244;-30
2022/03/11 12:55:53;;;;;;;4.53;3.50;;;16.90;96.40;;;;;;5011281;28;20312;-29
2022/03/11 12:58:32;;;;;;;6.28;3.95;;;17.00;96.40;;;;;;5010709;28;20212;-30
2022/03/11 13:01:08;;;;;;;8.80;4.30;;;17.00;96.40;;;;;;5014398;28;20255;-30
2022/03/11 13:03:47;;;;;;;12.45;4.60;;;17.10;96.50;;;;;;5008368;28;20291;-30